Narrabri West, New South Wales

8:41 PM AEDT on October 26, 2014 (GMT +1100)
Moree | Change Station
CLOSE
Current Station
Airport
Location: Moree Airport, NSW,
Elevation: 699 ft
Nearby Weather Stations

Elev 699 ft 29.50 °S, 149.85 °E | Updated 41 minutes ago

Clear
Clear
90 °F
Feels Like 90 °F
N
5
Wind Variable Wind from West

Today
High -- | Low -- °F
--% Chance of Precip.
Yesterday
High -- | Low -- °F
Precip. -- in
6:11 AM 7:18 PM
Waxing Crescent, 7% visible
Pressure 29.80 in
Visibility 6.2 miles
Clouds
Dew Point 36 °F
Humidity 15%
Rainfall 0.00 in
Snow Depth Not available.
UV Not available.
Pollen Not available.
Air Quality Not available.
Flu Activity Not available.
METAR YMOR 260900Z AUTO 26004KT 9999 // NCD 32/02 Q1009

More Conditions Fewer Conditions

Pressure 29.80 in
Visibility 6.2 miles
Clouds
Dew Point 36 °F
Humidity 15%
Rainfall 0.00 in
Snow Depth Not available.
UV Not available.
Pollen Not available.
Air Quality Not available.
Flu Activity Not available.
METAR YMOR 260900Z AUTO 26004KT 9999 // NCD 32/02 Q1009

More Conditions Fewer Conditions

10-Day Weather Forecast

Almanac

Astronomy

Oct. 26, 2014 Rise Set
Actual Time 6:11 AM AEDT 7:18 PM AEDT
Civil Twilight 5:46 AM AEDT 7:43 PM AEDT
Nautical Twilight 5:17 AM AEDT 8:13 PM AEDT
Astronomical Twilight 4:46 AM AEDT 8:43 PM AEDT
Moon 7:42 AM AEDT 9:30 PM AEDT
Length of Visible Light 13h 56m
Length of Day
13h 06m
Tomorrow will be 1m 43s longer.
Waxing Crescent, 7% of the Moon is Illuminated
Today
Waxing Crescent
Oct 30
First Quarter
Nov 6
Full
Nov 14
Last Quarter
Nov 22
New

Yesterday's Extremes

Country Highs Country Lows

Community

WunderPhotos

Upload Photos

1,765,132 photos uploaded!

Nearby

Snow Depth

Not available.

Earthquake Activity

City Distance Mag. Time & Date
No recent earthquake activity has been reported nearby.
Minimum magnitude displayed is 2.5.

Coastal Water Temperatures

Place Temperature
No Stations Reporting

Nearby Weather Stations